createdAt,value
2023-06-26T00:01:09.445Z,19.81
2023-06-26T00:01:34.589Z,19.81
2023-06-26T00:03:36.067Z,21.79
2023-06-26T00:06:02.600Z,21.51
2023-06-26T00:06:34.625Z,21.51
2023-06-26T00:08:29.919Z,18.02
2023-06-26T00:10:59.000Z,19.32
2023-06-26T00:11:35.647Z,19.32
2023-06-26T00:13:26.941Z,21.63
2023-06-26T00:15:53.411Z,19.35
2023-06-26T00:16:34.688Z,19.35
2023-06-26T00:18:24.304Z,21.29
2023-06-26T00:20:50.936Z,21.15
2023-06-26T00:21:34.737Z,21.15
2023-06-26T00:23:18.468Z,20.62
2023-06-26T00:25:45.471Z,20.96
2023-06-26T00:26:34.737Z,20.96
2023-06-26T00:28:11.946Z,20.59
2023-06-26T00:30:39.026Z,20.81
2023-06-26T00:31:34.789Z,20.81
2023-06-26T00:33:05.736Z,20.99
2023-06-26T00:35:32.508Z,21.12
2023-06-26T00:36:34.819Z,21.12
2023-06-26T00:37:59.021Z,19.99
2023-06-26T00:40:27.610Z,21.03
2023-06-26T00:41:34.933Z,21.03
2023-06-26T00:42:54.660Z,19.28
2023-06-26T00:45:30.425Z,21.02
2023-06-26T00:46:34.930Z,21.02
2023-06-26T00:48:10.574Z,20.72
2023-06-26T00:50:37.312Z,21.16
2023-06-26T00:51:34.962Z,21.16
2023-06-26T00:53:07.211Z,20.92
2023-06-26T00:55:33.865Z,19.13
2023-06-26T00:56:34.931Z,19.13
2023-06-26T00:58:00.457Z,21.03
2023-06-26T01:00:27.673Z,20.66
2023-06-26T01:01:35.044Z,20.66
2023-06-26T01:02:57.014Z,20.85
2023-06-26T01:05:23.599Z,20.35
2023-06-26T01:06:35.009Z,20.35
2023-06-26T01:07:52.775Z,21.12
2023-06-26T01:10:20.219Z,20.98
2023-06-26T01:11:35.075Z,20.98
2023-06-26T01:12:46.956Z,20.73
2023-06-26T01:15:13.460Z,20.60
2023-06-26T01:16:35.048Z,20.60
2023-06-26T01:17:44.283Z,20.80
2023-06-26T01:20:11.359Z,18.55
2023-06-26T01:21:35.203Z,18.55
2023-06-26T01:22:47.140Z,21.13
2023-06-26T01:25:32.672Z,18.55
2023-06-26T01:26:35.144Z,18.55
2023-06-26T01:28:00.328Z,19.01
2023-06-26T01:30:27.271Z,20.26
2023-06-26T01:31:35.211Z,20.26
2023-06-26T01:32:53.979Z,20.72
2023-06-26T01:35:20.860Z,20.88
2023-06-26T01:36:35.204Z,20.88
2023-06-26T01:37:47.307Z,20.18
2023-06-26T01:40:14.183Z,20.64
2023-06-26T01:41:35.232Z,20.64
2023-06-26T01:42:41.044Z,18.76
2023-06-26T01:45:27.439Z,16.68
2023-06-26T01:46:36.327Z,16.68
2023-06-26T01:47:57.907Z,18.64
2023-06-26T01:50:29.393Z,20.84
2023-06-26T01:51:35.325Z,20.84
2023-06-26T01:53:04.498Z,18.09
2023-06-26T01:55:53.169Z,20.77
2023-06-26T01:56:35.329Z,20.77
2023-06-26T01:58:23.801Z,20.17
2023-06-26T02:00:50.822Z,20.02
2023-06-26T02:01:35.391Z,20.02
2023-06-26T02:03:17.594Z,19.03
2023-06-26T02:05:45.559Z,18.83
2023-06-26T02:06:38.500Z,18.83
2023-06-26T02:08:15.524Z,17.77
2023-06-26T02:10:42.369Z,17.67
2023-06-26T02:11:35.470Z,17.67
2023-06-26T02:13:09.128Z,20.68
2023-06-26T02:15:35.617Z,18.77
2023-06-26T02:16:35.413Z,18.77
2023-06-26T02:18:02.118Z,19.87
2023-06-26T02:20:31.272Z,20.51
2023-06-26T02:21:35.419Z,20.51
2023-06-26T02:22:57.683Z,20.63
2023-06-26T02:25:24.324Z,20.43
2023-06-26T02:26:35.498Z,20.43
2023-06-26T02:27:50.804Z,20.53
2023-06-26T02:30:17.369Z,20.50
2023-06-26T02:31:35.552Z,20.50
2023-06-26T02:32:44.157Z,19.93
2023-06-26T02:35:10.659Z,19.50
2023-06-26T02:36:35.493Z,19.50
2023-06-26T02:37:37.624Z,18.82
2023-06-26T02:40:04.906Z,19.84
2023-06-26T02:41:35.525Z,19.84
2023-06-26T02:42:32.773Z,19.84
2023-06-26T02:45:02.457Z,19.95
2023-06-26T02:46:35.635Z,19.95
2023-06-26T02:47:29.460Z,19.38
2023-06-26T02:49:57.149Z,19.43
2023-06-26T02:51:35.563Z,19.43
2023-06-26T02:52:23.675Z,19.57
2023-06-26T02:54:50.201Z,19.85
2023-06-26T02:56:40.172Z,19.85
2023-06-26T02:57:18.079Z,19.50
2023-06-26T02:59:55.216Z,19.81
2023-06-26T03:01:35.717Z,19.81
2023-06-26T03:02:21.788Z,19.93
2023-06-26T03:04:51.038Z,19.31
2023-06-26T03:06:35.896Z,19.31
2023-06-26T03:07:17.592Z,18.72
2023-06-26T03:09:46.917Z,19.74
2023-06-26T03:11:35.754Z,19.74
2023-06-26T03:12:16.028Z,20.27
2023-06-26T03:14:50.015Z,20.40
2023-06-26T03:16:35.819Z,20.40
2023-06-26T03:17:16.487Z,19.48
2023-06-26T03:19:43.642Z,20.20
2023-06-26T03:21:35.829Z,20.20
2023-06-26T03:22:10.170Z,19.87
2023-06-26T03:24:43.089Z,19.95
2023-06-26T03:26:35.785Z,19.95
2023-06-26T03:27:12.089Z,18.07
2023-06-26T03:29:38.601Z,20.13
2023-06-26T03:31:35.860Z,20.13
2023-06-26T03:32:05.433Z,19.24
2023-06-26T03:34:31.868Z,19.80
2023-06-26T03:36:35.900Z,19.80
2023-06-26T03:36:58.309Z,20.43
2023-06-26T03:39:24.774Z,20.45
2023-06-26T03:41:35.933Z,20.45
2023-06-26T03:41:56.011Z,19.58
2023-06-26T03:44:23.691Z,20.57
2023-06-26T03:46:36.055Z,20.57
2023-06-26T03:46:50.574Z,19.19
2023-06-26T03:49:20.265Z,18.96
2023-06-26T03:51:38.047Z,18.96
2023-06-26T03:51:49.334Z,16.22
2023-06-26T03:54:17.366Z,20.85
2023-06-26T03:56:36.174Z,20.85
2023-06-26T03:56:48.303Z,19.04
2023-06-26T03:59:20.684Z,16.62
2023-06-26T04:01:37.152Z,16.62
2023-06-26T04:01:54.104Z,18.26
2023-06-26T04:04:23.538Z,16.37
2023-06-26T04:06:36.103Z,16.37
2023-06-26T04:07:03.357Z,21.10
2023-06-26T04:09:32.089Z,18.60
2023-06-26T04:11:38.794Z,18.60
2023-06-26T04:11:58.844Z,19.71
2023-06-26T04:14:25.607Z,17.81
2023-06-26T04:16:36.206Z,17.81
2023-06-26T04:16:54.938Z,19.88
2023-06-26T04:19:35.051Z,19.08
2023-06-26T04:21:38.697Z,19.08
2023-06-26T04:22:05.370Z,18.04
2023-06-26T04:24:36.731Z,22.30
2023-06-26T04:26:36.230Z,22.30
2023-06-26T04:27:07.073Z,18.02
2023-06-26T04:29:45.900Z,21.37
2023-06-26T04:31:36.350Z,21.37
2023-06-26T04:32:12.749Z,20.65
2023-06-26T04:34:44.262Z,20.11
2023-06-26T04:36:36.320Z,20.11
2023-06-26T04:37:20.400Z,20.58
2023-06-26T04:39:47.440Z,20.66
2023-06-26T04:41:37.390Z,20.66
2023-06-26T04:42:28.782Z,21.95
2023-06-26T04:45:00.709Z,21.70
2023-06-26T04:46:36.340Z,21.70
2023-06-26T04:47:28.796Z,20.13
2023-06-26T04:49:57.571Z,22.30
2023-06-26T04:51:36.373Z,22.30
2023-06-26T04:52:28.598Z,21.58
2023-06-26T04:55:06.227Z,20.45
2023-06-26T04:56:39.500Z,20.45
2023-06-26T04:58:05.638Z,22.78
2023-06-26T05:00:39.412Z,24.58
2023-06-26T05:01:39.281Z,24.58
2023-06-26T05:03:13.838Z,21.97
2023-06-26T05:05:40.722Z,24.12
2023-06-26T05:06:36.380Z,24.12
2023-06-26T05:08:23.824Z,23.17
2023-06-26T05:10:50.784Z,23.91
2023-06-26T05:11:36.394Z,23.91
2023-06-26T05:13:18.772Z,23.20
2023-06-26T05:15:46.106Z,22.59
2023-06-26T05:16:36.383Z,22.59
2023-06-26T05:18:13.081Z,23.03
2023-06-26T05:20:39.913Z,22.15
2023-06-26T05:21:36.539Z,22.15
2023-06-26T05:23:06.726Z,23.16
2023-06-26T05:25:35.146Z,22.53
2023-06-26T05:26:37.450Z,22.53
2023-06-26T05:28:02.285Z,23.02
2023-06-26T05:30:29.444Z,22.57
2023-06-26T05:31:36.645Z,22.57
2023-06-26T05:32:56.675Z,22.60
2023-06-26T05:35:23.939Z,21.98
2023-06-26T05:36:36.507Z,21.98
2023-06-26T05:37:51.608Z,23.35
2023-06-26T05:40:21.935Z,23.62
2023-06-26T05:41:36.411Z,23.62
2023-06-26T05:42:49.015Z,23.60
2023-06-26T05:45:15.766Z,24.40
2023-06-26T05:46:36.410Z,24.40
2023-06-26T05:47:43.184Z,23.80
2023-06-26T05:50:11.066Z,24.58
2023-06-26T05:51:36.628Z,24.58
2023-06-26T05:52:37.855Z,24.48
2023-06-26T05:55:04.809Z,25.86
2023-06-26T05:56:36.678Z,25.86
2023-06-26T05:57:31.700Z,26.03
2023-06-26T05:59:58.983Z,25.33
2023-06-26T06:01:36.474Z,25.33
2023-06-26T06:02:25.427Z,24.61
2023-06-26T06:04:52.042Z,23.15
2023-06-26T06:06:36.411Z,23.15
2023-06-26T06:07:18.547Z,24.71
2023-06-26T06:09:45.148Z,23.51
2023-06-26T06:11:36.427Z,23.51
2023-06-26T06:12:11.582Z,24.40
2023-06-26T06:14:38.001Z,24.01
2023-06-26T06:16:36.448Z,24.01
2023-06-26T06:17:04.570Z,23.17
2023-06-26T06:19:31.005Z,23.88
2023-06-26T06:21:36.427Z,23.88
2023-06-26T06:21:57.417Z,23.26
2023-06-26T06:24:23.824Z,23.27
2023-06-26T06:26:36.425Z,23.27
2023-06-26T06:26:50.219Z,22.83
2023-06-26T06:29:16.691Z,22.26
2023-06-26T06:31:36.452Z,22.26
2023-06-26T06:31:43.080Z,22.10
2023-06-26T06:34:09.526Z,21.98
2023-06-26T06:36:36.166Z,22.28
2023-06-26T06:36:36.459Z,22.28
2023-06-26T06:39:02.668Z,22.58
2023-06-26T06:41:29.101Z,23.50
2023-06-26T06:41:37.549Z,23.50
2023-06-26T06:43:55.708Z,24.16
2023-06-26T06:46:22.152Z,23.79
2023-06-26T06:46:36.431Z,23.79
2023-06-26T06:48:48.548Z,23.68
2023-06-26T06:51:15.215Z,23.55
2023-06-26T06:51:36.431Z,23.55
2023-06-26T06:53:41.654Z,23.40
2023-06-26T06:56:08.128Z,22.98
2023-06-26T06:56:36.417Z,22.98
2023-06-26T06:58:34.835Z,23.55
2023-06-26T07:01:03.619Z,23.25
2023-06-26T07:01:36.442Z,23.25
2023-06-26T07:03:30.149Z,24.33
2023-06-26T07:05:57.165Z,23.09
2023-06-26T07:06:36.415Z,23.09
2023-06-26T07:08:23.562Z,22.81
2023-06-26T07:10:52.330Z,22.14
2023-06-26T07:11:36.454Z,22.14
2023-06-26T07:13:19.804Z,22.41
2023-06-26T07:15:46.824Z,22.54
2023-06-26T07:16:36.464Z,22.54
2023-06-26T07:18:13.309Z,22.63
2023-06-26T07:20:39.941Z,23.22
2023-06-26T07:21:36.414Z,23.22
2023-06-26T07:23:06.584Z,23.86
2023-06-26T07:25:33.019Z,22.66
2023-06-26T07:26:45.435Z,22.66
2023-06-26T07:27:59.391Z,24.15
2023-06-26T07:30:25.820Z,24.52
2023-06-26T07:31:36.484Z,24.52
2023-06-26T07:32:52.223Z,24.59
2023-06-26T07:35:18.809Z,24.64
2023-06-26T07:36:36.461Z,24.64
2023-06-26T07:37:45.327Z,24.18
2023-06-26T07:40:12.584Z,23.63
2023-06-26T07:41:36.436Z,23.63
2023-06-26T07:42:39.339Z,24.25
2023-06-26T07:45:10.925Z,24.43
2023-06-26T07:46:36.445Z,24.43
2023-06-26T07:47:42.842Z,24.26
2023-06-26T07:50:09.608Z,24.38
2023-06-26T07:51:36.418Z,24.38
2023-06-26T07:52:36.173Z,24.72
2023-06-26T07:55:02.577Z,23.68
2023-06-26T07:56:36.427Z,23.68
2023-06-26T07:57:29.002Z,24.51
2023-06-26T07:59:56.702Z,24.94
2023-06-26T08:01:36.455Z,24.94
2023-06-26T08:02:23.431Z,25.17
2023-06-26T08:04:52.103Z,24.74
2023-06-26T08:06:36.428Z,24.74
2023-06-26T08:07:19.796Z,25.32
2023-06-26T08:09:46.281Z,25.13
2023-06-26T08:11:36.439Z,25.13
2023-06-26T08:12:13.638Z,25.90
2023-06-26T08:14:40.152Z,25.35
2023-06-26T08:16:36.419Z,25.35
2023-06-26T08:17:06.631Z,25.64
2023-06-26T08:19:32.972Z,25.52
2023-06-26T08:21:36.439Z,25.52
2023-06-26T08:21:59.368Z,24.65
2023-06-26T08:24:25.760Z,24.75
2023-06-26T08:26:36.434Z,24.75
2023-06-26T08:26:52.130Z,24.38
2023-06-26T08:29:18.569Z,24.37
2023-06-26T08:31:36.477Z,24.37
2023-06-26T08:31:45.144Z,25.23
2023-06-26T08:34:11.766Z,24.39
2023-06-26T08:36:36.495Z,24.39
2023-06-26T08:36:38.230Z,24.45
2023-06-26T08:39:06.708Z,24.11
2023-06-26T08:41:33.473Z,23.97
2023-06-26T08:41:36.433Z,23.97
2023-06-26T08:44:00.022Z,24.25
2023-06-26T08:46:26.531Z,24.46
2023-06-26T08:46:36.439Z,24.46
2023-06-26T08:48:57.213Z,25.04
2023-06-26T08:51:29.642Z,25.18
2023-06-26T08:51:36.448Z,25.18
2023-06-26T08:54:00.908Z,25.21
2023-06-26T08:56:46.496Z,24.79
2023-06-26T08:56:46.638Z,24.79
2023-06-26T08:59:15.080Z,25.04
2023-06-26T09:01:36.422Z,25.04
2023-06-26T09:01:42.299Z,25.16
2023-06-26T09:04:08.798Z,24.68
2023-06-26T09:06:35.293Z,25.16
2023-06-26T09:06:36.500Z,25.16
2023-06-26T09:09:01.950Z,24.92
2023-06-26T09:11:28.390Z,25.43
2023-06-26T09:11:36.449Z,25.43
2023-06-26T09:13:56.178Z,24.62
2023-06-26T09:16:30.120Z,24.93
2023-06-26T09:16:36.478Z,24.93
2023-06-26T09:18:57.487Z,25.62
2023-06-26T09:21:25.388Z,25.38
2023-06-26T09:21:36.437Z,25.38
2023-06-26T09:23:55.392Z,25.42
2023-06-26T09:26:23.328Z,25.73
2023-06-26T09:26:36.441Z,25.73
2023-06-26T09:28:50.946Z,25.07
2023-06-26T09:31:27.956Z,25.00
2023-06-26T09:31:42.223Z,25.00
2023-06-26T09:34:04.786Z,24.93
2023-06-26T09:36:39.839Z,25.37
2023-06-26T09:36:40.964Z,25.37
2023-06-26T09:39:13.080Z,25.30
2023-06-26T09:41:36.433Z,25.30
2023-06-26T09:41:42.411Z,25.25
2023-06-26T09:44:13.189Z,25.41
2023-06-26T09:46:36.512Z,25.41
2023-06-26T09:46:39.664Z,25.54
2023-06-26T09:49:07.171Z,24.57
2023-06-26T09:51:35.455Z,25.73
2023-06-26T09:51:36.505Z,25.73
2023-06-26T09:54:03.457Z,25.99
2023-06-26T09:56:31.297Z,25.58
2023-06-26T09:56:36.447Z,25.58
2023-06-26T09:58:59.185Z,26.41
2023-06-26T10:01:26.826Z,25.47
2023-06-26T10:01:36.562Z,25.47
2023-06-26T10:03:55.072Z,25.92
2023-06-26T10:06:32.623Z,27.00
2023-06-26T10:06:36.460Z,27.00
2023-06-26T10:09:00.586Z,27.33
2023-06-26T10:11:46.049Z,26.64
2023-06-26T10:11:46.175Z,26.64
2023-06-26T10:14:18.116Z,26.23
2023-06-26T10:16:36.496Z,26.23
2023-06-26T10:16:46.519Z,26.29
2023-06-26T10:19:15.522Z,26.45
2023-06-26T10:21:36.436Z,26.45
2023-06-26T10:21:42.448Z,27.37
2023-06-26T10:24:11.461Z,26.65
2023-06-26T10:26:36.460Z,26.65
2023-06-26T10:26:42.338Z,26.65
2023-06-26T10:29:09.994Z,26.35
2023-06-26T10:31:38.918Z,25.90
2023-06-26T10:31:39.095Z,25.90
2023-06-26T10:34:06.328Z,25.65
2023-06-26T10:36:32.809Z,26.55
2023-06-26T10:36:36.434Z,26.55
2023-06-26T10:39:06.177Z,26.02
2023-06-26T10:41:52.957Z,25.81
2023-06-26T10:42:05.532Z,25.81
2023-06-26T10:44:27.517Z,26.21
2023-06-26T10:46:36.428Z,26.21
2023-06-26T10:46:55.185Z,25.55
2023-06-26T10:49:26.037Z,25.56
2023-06-26T10:51:36.482Z,25.56
2023-06-26T10:51:52.910Z,26.76
2023-06-26T10:54:20.446Z,25.73
2023-06-26T10:56:36.461Z,25.73
2023-06-26T10:56:48.754Z,26.91
2023-06-26T10:59:22.018Z,26.67
2023-06-26T11:01:36.584Z,26.67
2023-06-26T11:02:04.744Z,26.84
2023-06-26T11:04:38.192Z,26.31
2023-06-26T11:06:36.456Z,26.31
2023-06-26T11:07:25.185Z,26.86
2023-06-26T11:10:00.825Z,26.22
2023-06-26T11:11:36.452Z,26.22
2023-06-26T11:12:39.229Z,27.10
2023-06-26T11:15:17.251Z,26.51
2023-06-26T11:16:36.475Z,26.51
2023-06-26T11:17:45.115Z,26.64
2023-06-26T11:20:13.417Z,26.24
2023-06-26T11:21:36.448Z,26.24
2023-06-26T11:22:41.585Z,25.51
2023-06-26T11:25:09.685Z,26.28
2023-06-26T11:26:36.465Z,26.28
2023-06-26T11:27:39.576Z,25.41
2023-06-26T11:30:07.423Z,26.01
2023-06-26T11:31:36.487Z,26.01
2023-06-26T11:32:34.234Z,25.87
2023-06-26T11:35:00.897Z,25.78
2023-06-26T11:36:36.499Z,25.78
2023-06-26T11:37:27.659Z,27.21
2023-06-26T11:39:54.509Z,26.69
2023-06-26T11:41:36.479Z,26.69
2023-06-26T11:42:21.951Z,26.85
2023-06-26T11:44:48.784Z,26.60
2023-06-26T11:46:36.486Z,26.60
2023-06-26T11:47:20.130Z,27.23
2023-06-26T11:49:48.108Z,27.15
2023-06-26T11:51:36.517Z,27.15
2023-06-26T11:52:15.890Z,26.02
2023-06-26T11:54:43.696Z,27.20
2023-06-26T11:56:36.470Z,27.20
2023-06-26T11:57:15.522Z,27.32
2023-06-26T11:59:42.296Z,27.44
2023-06-26T12:01:36.492Z,27.44
2023-06-26T12:02:10.624Z,27.19
2023-06-26T12:04:38.793Z,27.42
2023-06-26T12:06:36.500Z,27.42
2023-06-26T12:07:09.045Z,26.80
2023-06-26T12:09:39.854Z,26.49
2023-06-26T12:11:36.488Z,26.49
2023-06-26T12:12:06.698Z,25.93
2023-06-26T12:14:33.340Z,26.93
2023-06-26T12:16:36.508Z,26.93
2023-06-26T12:17:09.577Z,26.88
2023-06-26T12:19:39.120Z,26.04
2023-06-26T12:21:36.492Z,26.04
2023-06-26T12:22:11.887Z,25.55
2023-06-26T12:24:43.979Z,26.26
2023-06-26T12:26:36.507Z,26.26
2023-06-26T12:27:15.492Z,26.50
2023-06-26T12:29:54.889Z,26.79
2023-06-26T12:31:36.489Z,26.79
2023-06-26T12:32:26.482Z,26.62
2023-06-26T12:34:53.980Z,26.04
2023-06-26T12:36:36.476Z,26.04
2023-06-26T12:37:20.520Z,25.22
2023-06-26T12:39:57.292Z,25.70
2023-06-26T12:41:36.493Z,25.70
2023-06-26T12:42:28.671Z,25.13
2023-06-26T12:44:57.492Z,25.38
2023-06-26T12:46:36.654Z,25.38
2023-06-26T12:47:28.903Z,25.74
2023-06-26T12:49:55.890Z,25.64
2023-06-26T12:51:36.493Z,25.64
2023-06-26T12:52:22.620Z,25.84
2023-06-26T12:54:54.412Z,25.33
2023-06-26T12:56:36.478Z,25.33
2023-06-26T12:57:20.892Z,26.51
2023-06-26T12:59:47.389Z,26.46
2023-06-26T13:01:36.521Z,26.46
2023-06-26T13:02:14.264Z,27.23
2023-06-26T13:04:41.419Z,26.28
2023-06-26T13:06:36.487Z,26.28
2023-06-26T13:07:09.123Z,26.54
2023-06-26T13:09:37.656Z,27.25
2023-06-26T13:11:36.480Z,27.25
2023-06-26T13:12:05.080Z,26.06
2023-06-26T13:14:32.170Z,27.03
2023-06-26T13:16:36.499Z,27.03
2023-06-26T13:16:58.592Z,26.74
2023-06-26T13:19:25.093Z,27.72
2023-06-26T13:21:36.554Z,27.72
2023-06-26T13:21:51.555Z,27.17
2023-06-26T13:24:18.116Z,26.99
2023-06-26T13:26:38.241Z,26.99
2023-06-26T13:26:44.533Z,26.66
2023-06-26T13:29:11.215Z,26.50
2023-06-26T13:31:38.026Z,26.10
2023-06-26T13:31:38.221Z,26.10
2023-06-26T13:34:07.037Z,25.91
2023-06-26T13:36:36.478Z,26.66
2023-06-26T13:36:36.607Z,26.66
2023-06-26T13:39:04.159Z,26.32
2023-06-26T13:41:30.768Z,26.12
2023-06-26T13:41:36.506Z,26.12
2023-06-26T13:44:01.377Z,26.76
2023-06-26T13:46:34.028Z,25.96
2023-06-26T13:46:36.521Z,25.96
2023-06-26T13:49:00.513Z,27.56
2023-06-26T13:51:26.963Z,27.04
2023-06-26T13:51:36.485Z,27.04
2023-06-26T13:53:53.428Z,27.49
2023-06-26T13:56:19.850Z,27.65
2023-06-26T13:56:36.498Z,27.65
2023-06-26T13:58:46.247Z,27.23
2023-06-26T14:01:13.692Z,26.71
2023-06-26T14:01:36.485Z,26.71
2023-06-26T14:03:40.123Z,26.05
2023-06-26T14:06:06.555Z,25.96
2023-06-26T14:06:36.491Z,25.96
2023-06-26T14:08:33.093Z,25.15
2023-06-26T14:11:00.067Z,25.90
2023-06-26T14:11:36.600Z,25.90
2023-06-26T14:13:26.556Z,26.13
2023-06-26T14:15:53.884Z,26.51
2023-06-26T14:16:36.588Z,26.51
2023-06-26T14:18:21.849Z,26.52
2023-06-26T14:20:48.260Z,26.30
2023-06-26T14:21:36.506Z,26.30
2023-06-26T14:23:14.652Z,26.71
2023-06-26T14:25:41.021Z,26.38
2023-06-26T14:26:36.497Z,26.38
2023-06-26T14:28:07.592Z,26.56
2023-06-26T14:30:34.053Z,26.32
2023-06-26T14:31:36.489Z,26.32
2023-06-26T14:33:00.523Z,27.18
2023-06-26T14:35:27.090Z,25.93
2023-06-26T14:36:36.530Z,25.93
2023-06-26T14:37:53.457Z,26.64
2023-06-26T14:40:20.743Z,26.36
2023-06-26T14:41:36.505Z,26.36
2023-06-26T14:42:47.670Z,26.08
2023-06-26T14:45:14.563Z,27.08
2023-06-26T14:46:36.537Z,27.08
2023-06-26T14:47:41.622Z,26.38
2023-06-26T14:50:09.334Z,26.40
2023-06-26T14:51:36.508Z,26.40
2023-06-26T14:52:35.800Z,26.00
2023-06-26T14:55:03.094Z,25.59
2023-06-26T14:56:36.518Z,25.59
2023-06-26T14:57:31.214Z,25.19
2023-06-26T14:59:57.687Z,24.92
2023-06-26T15:01:36.602Z,24.92
2023-06-26T15:02:24.195Z,24.77
2023-06-26T15:04:50.693Z,25.44
2023-06-26T15:06:36.503Z,25.44
2023-06-26T15:07:17.175Z,25.80
2023-06-26T15:09:43.646Z,25.71
2023-06-26T15:11:36.502Z,25.71
2023-06-26T15:12:10.291Z,26.15
2023-06-26T15:14:36.665Z,25.39
2023-06-26T15:16:36.548Z,25.39
2023-06-26T15:17:03.147Z,26.19
2023-06-26T15:19:29.576Z,25.50
2023-06-26T15:21:36.522Z,25.50
2023-06-26T15:21:56.344Z,25.64
2023-06-26T15:24:22.705Z,25.23
2023-06-26T15:26:36.515Z,25.23
2023-06-26T15:26:49.128Z,25.56
2023-06-26T15:29:16.523Z,25.21
2023-06-26T15:31:36.553Z,25.21
2023-06-26T15:31:42.984Z,24.73
2023-06-26T15:34:09.396Z,25.29
2023-06-26T15:36:35.762Z,24.99
2023-06-26T15:36:36.520Z,24.99
2023-06-26T15:39:02.235Z,25.31
2023-06-26T15:41:28.583Z,25.22
2023-06-26T15:41:36.510Z,25.22
2023-06-26T15:43:56.088Z,26.01
2023-06-26T15:46:22.571Z,26.14
2023-06-26T15:46:36.683Z,26.14
2023-06-26T15:48:49.070Z,25.75
2023-06-26T15:51:16.428Z,25.33
2023-06-26T15:51:36.531Z,25.33
2023-06-26T15:53:43.710Z,25.94
2023-06-26T15:56:11.943Z,25.52
2023-06-26T15:56:36.543Z,25.52
2023-06-26T15:58:42.909Z,25.66
2023-06-26T16:01:10.915Z,25.22
2023-06-26T16:01:37.162Z,25.22
2023-06-26T16:03:38.329Z,25.03
2023-06-26T16:06:04.800Z,24.48
2023-06-26T16:06:36.498Z,24.48
2023-06-26T16:08:31.250Z,24.73
2023-06-26T16:10:57.740Z,25.27
2023-06-26T16:11:36.532Z,25.27
2023-06-26T16:13:24.276Z,25.17
2023-06-26T16:15:53.233Z,24.81
2023-06-26T16:16:36.545Z,24.81
2023-06-26T16:18:19.622Z,24.80
2023-06-26T16:20:47.003Z,24.85
2023-06-26T16:21:36.522Z,24.85
2023-06-26T16:23:13.879Z,24.94
2023-06-26T16:25:40.566Z,24.98
2023-06-26T16:26:36.504Z,24.98
2023-06-26T16:28:07.115Z,24.05
2023-06-26T16:30:33.598Z,24.57
2023-06-26T16:31:36.604Z,24.57
2023-06-26T16:33:00.219Z,24.37
2023-06-26T16:35:28.275Z,24.57
2023-06-26T16:36:36.518Z,24.57
2023-06-26T16:37:54.676Z,23.07
2023-06-26T16:40:21.213Z,24.03
2023-06-26T16:41:36.539Z,24.03
2023-06-26T16:42:47.803Z,24.34
2023-06-26T16:45:14.200Z,23.78
2023-06-26T16:46:36.557Z,23.78
2023-06-26T16:47:40.913Z,23.35
2023-06-26T16:50:07.936Z,23.31
2023-06-26T16:51:36.518Z,23.31
2023-06-26T16:52:34.391Z,23.72
2023-06-26T16:55:03.443Z,23.67
2023-06-26T16:56:36.525Z,23.67
2023-06-26T16:57:29.871Z,23.75
2023-06-26T16:59:56.719Z,23.67
2023-06-26T17:01:36.621Z,23.67
2023-06-26T17:02:23.273Z,22.70
2023-06-26T17:04:49.762Z,23.34
2023-06-26T17:06:36.543Z,23.34
2023-06-26T17:07:16.335Z,23.38
2023-06-26T17:09:42.842Z,22.62
2023-06-26T17:11:36.525Z,22.62
2023-06-26T17:12:09.410Z,22.84
2023-06-26T17:14:35.779Z,22.48
2023-06-26T17:16:36.528Z,22.48
2023-06-26T17:17:02.177Z,21.52
2023-06-26T17:19:28.581Z,21.80
2023-06-26T17:21:36.523Z,21.80
2023-06-26T17:21:54.985Z,22.59
2023-06-26T17:24:21.520Z,22.57
2023-06-26T17:26:36.510Z,22.57
2023-06-26T17:26:48.048Z,22.24
2023-06-26T17:29:14.488Z,21.58
2023-06-26T17:31:38.210Z,21.58
2023-06-26T17:31:41.873Z,20.62
2023-06-26T17:34:08.642Z,22.06
2023-06-26T17:36:35.121Z,22.00
2023-06-26T17:36:36.531Z,22.00
2023-06-26T17:39:03.409Z,21.88
2023-06-26T17:41:29.799Z,19.53
2023-06-26T17:41:36.545Z,19.53
2023-06-26T17:43:56.269Z,21.22
2023-06-26T17:46:22.695Z,21.92
2023-06-26T17:46:36.684Z,21.92
2023-06-26T17:48:49.113Z,22.17
2023-06-26T17:51:15.624Z,20.95
2023-06-26T17:51:36.532Z,20.95
2023-06-26T17:53:42.365Z,22.52
2023-06-26T17:56:08.872Z,18.98
2023-06-26T17:56:36.555Z,18.98
2023-06-26T17:58:35.644Z,19.43
2023-06-26T18:01:02.154Z,20.77
2023-06-26T18:01:36.679Z,20.77
2023-06-26T18:03:28.698Z,20.96
2023-06-26T18:05:55.371Z,21.33
2023-06-26T18:06:36.577Z,21.33
2023-06-26T18:08:21.944Z,20.12
2023-06-26T18:10:51.026Z,18.98
2023-06-26T18:11:36.697Z,18.98
2023-06-26T18:13:17.726Z,22.06
2023-06-26T18:15:44.392Z,19.49
2023-06-26T18:16:36.577Z,19.49
2023-06-26T18:18:11.434Z,22.07
2023-06-26T18:20:40.613Z,17.78
2023-06-26T18:21:36.554Z,17.78
2023-06-26T18:23:07.414Z,19.09
2023-06-26T18:25:34.036Z,17.68
2023-06-26T18:26:36.597Z,17.68
2023-06-26T18:28:00.571Z,21.25
2023-06-26T18:30:27.327Z,20.85
2023-06-26T18:31:36.614Z,20.85
2023-06-26T18:32:53.900Z,19.69
2023-06-26T18:35:20.589Z,18.81
2023-06-26T18:36:36.540Z,18.81
2023-06-26T18:37:47.301Z,19.43
2023-06-26T18:40:15.920Z,20.37
2023-06-26T18:41:36.594Z,20.37
2023-06-26T18:42:43.646Z,18.45
2023-06-26T18:45:12.838Z,18.26
2023-06-26T18:46:36.572Z,18.26
2023-06-26T18:47:39.566Z,21.37
2023-06-26T18:50:08.654Z,20.28
2023-06-26T18:51:36.553Z,20.28
2023-06-26T18:52:35.336Z,16.95
2023-06-26T18:55:01.862Z,17.61
2023-06-26T18:56:36.564Z,17.61
2023-06-26T18:57:28.616Z,19.60
2023-06-26T18:59:55.185Z,19.01
2023-06-26T19:01:36.672Z,19.01
2023-06-26T19:02:22.170Z,18.58
2023-06-26T19:04:48.780Z,17.31
2023-06-26T19:06:36.590Z,17.31
2023-06-26T19:07:17.672Z,21.31
2023-06-26T19:09:44.209Z,19.79
2023-06-26T19:11:36.587Z,19.79
2023-06-26T19:12:11.088Z,20.23
2023-06-26T19:14:37.882Z,16.00
2023-06-26T19:16:36.589Z,16.00
2023-06-26T19:17:04.802Z,17.73
2023-06-26T19:19:31.379Z,18.87
2023-06-26T19:21:36.613Z,18.87
2023-06-26T19:22:00.825Z,17.54
2023-06-26T19:24:29.490Z,20.63
2023-06-26T19:26:36.610Z,20.63
2023-06-26T19:26:58.529Z,16.05
2023-06-26T19:29:27.944Z,20.47
2023-06-26T19:31:36.600Z,20.47
2023-06-26T19:31:55.647Z,16.75
2023-06-26T19:34:22.299Z,17.51
2023-06-26T19:36:36.561Z,17.51
2023-06-26T19:36:48.909Z,17.92
2023-06-26T19:39:15.955Z,15.89
2023-06-26T19:41:36.598Z,15.89
2023-06-26T19:41:42.541Z,18.14
2023-06-26T19:44:16.942Z,19.17
2023-06-26T19:46:36.578Z,19.17
2023-06-26T19:46:45.904Z,17.87
2023-06-26T19:49:12.508Z,18.11
2023-06-26T19:51:36.599Z,18.11
2023-06-26T19:51:39.373Z,16.12
2023-06-26T19:54:08.935Z,15.03
2023-06-26T19:56:35.866Z,15.88
2023-06-26T19:56:36.585Z,15.88
2023-06-26T19:59:02.465Z,18.24
2023-06-26T20:01:29.210Z,14.92
2023-06-26T20:01:36.699Z,14.92
2023-06-26T20:03:55.787Z,18.12
2023-06-26T20:06:25.504Z,15.24
2023-06-26T20:06:36.580Z,15.24
2023-06-26T20:08:52.030Z,16.61
2023-06-26T20:11:18.562Z,16.17
2023-06-26T20:11:36.567Z,16.17
2023-06-26T20:13:45.125Z,17.51
2023-06-26T20:16:11.693Z,16.59
2023-06-26T20:16:36.611Z,16.59
2023-06-26T20:18:38.208Z,17.03
2023-06-26T20:21:04.722Z,14.70
2023-06-26T20:21:36.585Z,14.70
2023-06-26T20:23:31.217Z,16.63
2023-06-26T20:26:00.501Z,16.78
2023-06-26T20:26:36.573Z,16.78
2023-06-26T20:28:26.990Z,17.85
2023-06-26T20:30:53.748Z,16.59
2023-06-26T20:31:36.617Z,16.59
2023-06-26T20:33:20.332Z,17.33
2023-06-26T20:35:46.794Z,15.43
2023-06-26T20:36:36.608Z,15.43
2023-06-26T20:38:13.462Z,16.61
2023-06-26T20:40:40.214Z,16.91
2023-06-26T20:41:36.613Z,16.91
2023-06-26T20:43:08.182Z,16.72
2023-06-26T20:45:35.097Z,15.45
2023-06-26T20:46:36.572Z,15.45
2023-06-26T20:48:02.110Z,13.51
2023-06-26T20:50:29.015Z,14.25
2023-06-26T20:51:36.575Z,14.25
2023-06-26T20:52:57.349Z,18.12
2023-06-26T20:55:24.473Z,14.25
2023-06-26T20:56:36.564Z,14.25
2023-06-26T20:57:51.143Z,15.55
2023-06-26T21:00:18.421Z,17.92
2023-06-26T21:01:36.802Z,17.92
2023-06-26T21:02:45.299Z,15.45
2023-06-26T21:05:12.127Z,16.64
2023-06-26T21:06:37.604Z,16.64
2023-06-26T21:07:38.987Z,14.06
2023-06-26T21:10:08.537Z,17.71
2023-06-26T21:11:36.577Z,17.71
2023-06-26T21:12:36.136Z,17.32
2023-06-26T21:15:02.901Z,15.39
2023-06-26T21:16:38.261Z,15.39
2023-06-26T21:17:29.655Z,15.95